sensor_id;sensor_type;location;lat;lon;timestamp;P1;P2;P0
55686;PMS5003;41911;52.362;4.978;2022-08-19T00:00:24;11.0;11.0;
55686;PMS5003;41911;52.362;4.978;2022-08-19T00:00:56;11.0;11.0;
55686;PMS5003;41911;52.362;4.978;2022-08-19T00:01:27;12.0;12.0;
55686;PMS5003;41911;52.362;4.978;2022-08-19T00:01:58;10.0;10.0;
55686;PMS5003;41911;52.362;4.978;2022-08-19T00:02:29;11.0;11.0;
55686;PMS5003;41911;52.362;4.978;2022-08-19T00:03:00;13.0;12.0;
55686;PMS5003;41911;52.362;4.978;2022-08-19T00:03:31;14.0;13.0;
55686;PMS5003;41911;52.362;4.978;2022-08-19T00:04:03;12.0;11.0;
55686;PMS5003;41911;52.362;4.978;2022-08-19T00:04:36;10.0;10.0;
55686;PMS5003;41911;52.362;4.978;2022-08-19T00:05:08;9.0;9.0;
55686;PMS5003;41911;52.362;4.978;2022-08-19T00:05:42;10.0;10.0;
55686;PMS5003;41911;52.362;4.978;2022-08-19T00:06:13;11.0;10.0;
55686;PMS5003;41911;52.362;4.978;2022-08-19T00:06:46;12.0;12.0;
55686;PMS5003;41911;52.362;4.978;2022-08-19T00:07:19;11.0;11.0;
55686;PMS5003;41911;52.362;4.978;2022-08-19T00:07:50;11.0;11.0;
55686;PMS5003;41911;52.362;4.978;2022-08-19T00:08:21;12.0;11.0;
55686;PMS5003;41911;52.362;4.978;2022-08-19T00:08:52;11.0;11.0;
55686;PMS5003;41911;52.362;4.978;2022-08-19T00:09:23;11.0;10.0;
55686;PMS5003;41911;52.362;4.978;2022-08-19T00:09:55;11.0;10.0;
55686;PMS5003;41911;52.362;4.978;2022-08-19T00:10:26;11.0;11.0;
55686;PMS5003;41911;52.362;4.978;2022-08-19T00:10:57;13.0;11.0;
55686;PMS5003;41911;52.362;4.978;2022-08-19T00:11:28;14.0;13.0;
55686;PMS5003;41911;52.362;4.978;2022-08-19T00:11:59;15.0;15.0;
55686;PMS5003;41911;52.362;4.978;2022-08-19T00:12:31;12.0;12.0;
55686;PMS5003;41911;52.362;4.978;2022-08-19T00:13:02;12.0;11.0;
55686;PMS5003;41911;52.362;4.978;2022-08-19T00:13:33;13.0;13.0;
55686;PMS5003;41911;52.362;4.978;2022-08-19T00:14:05;11.0;11.0;
55686;PMS5003;41911;52.362;4.978;2022-08-19T00:14:38;11.0;11.0;
55686;PMS5003;41911;52.362;4.978;2022-08-19T00:15:11;11.0;11.0;
55686;PMS5003;41911;52.362;4.978;2022-08-19T00:15:44;11.0;11.0;
55686;PMS5003;41911;52.362;4.978;2022-08-19T00:16:15;10.0;9.0;
55686;PMS5003;41911;52.362;4.978;2022-08-19T00:16:46;12.0;12.0;
55686;PMS5003;41911;52.362;4.978;2022-08-19T00:17:18;11.0;11.0;
55686;PMS5003;41911;52.362;4.978;2022-08-19T00:17:49;10.0;10.0;
55686;PMS5003;41911;52.362;4.978;2022-08-19T00:18:20;11.0;11.0;
55686;PMS5003;41911;52.362;4.978;2022-08-19T00:18:51;11.0;11.0;
55686;PMS5003;41911;52.362;4.978;2022-08-19T00:19:23;11.0;11.0;
55686;PMS5003;41911;52.362;4.978;2022-08-19T00:19:54;10.0;10.0;
55686;PMS5003;41911;52.362;4.978;2022-08-19T00:20:25;11.0;11.0;
55686;PMS5003;41911;52.362;4.978;2022-08-19T00:20:56;10.0;10.0;
55686;PMS5003;41911;52.362;4.978;2022-08-19T00:21:27;10.0;10.0;
55686;PMS5003;41911;52.362;4.978;2022-08-19T00:21:58;12.0;12.0;
55686;PMS5003;41911;52.362;4.978;2022-08-19T00:22:29;11.0;11.0;
55686;PMS5003;41911;52.362;4.978;2022-08-19T00:23:00;11.0;10.0;
55686;PMS5003;41911;52.362;4.978;2022-08-19T00:23:31;8.0;8.0;
55686;PMS5003;41911;52.362;4.978;2022-08-19T00:24:02;8.0;8.0;
55686;PMS5003;41911;52.362;4.978;2022-08-19T00:24:34;9.0;9.0;
55686;PMS5003;41911;52.362;4.978;2022-08-19T00:25:05;11.0;11.0;
55686;PMS5003;41911;52.362;4.978;2022-08-19T00:25:37;11.0;11.0;
55686;PMS5003;41911;52.362;4.978;2022-08-19T00:26:09;11.0;11.0;
55686;PMS5003;41911;52.362;4.978;2022-08-19T00:26:41;11.0;11.0;
55686;PMS5003;41911;52.362;4.978;2022-08-19T00:27:13;12.0;11.0;
55686;PMS5003;41911;52.362;4.978;2022-08-19T00:27:44;12.0;11.0;
55686;PMS5003;41911;52.362;4.978;2022-08-19T00:28:15;13.0;13.0;
55686;PMS5003;41911;52.362;4.978;2022-08-19T00:28:46;10.0;10.0;
55686;PMS5003;41911;52.362;4.978;2022-08-19T00:29:18;12.0;12.0;
55686;PMS5003;41911;52.362;4.978;2022-08-19T00:29:51;11.0;10.0;
55686;PMS5003;41911;52.362;4.978;2022-08-19T00:30:22;11.0;11.0;
55686;PMS5003;41911;52.362;4.978;2022-08-19T00:30:52;12.0;12.0;
55686;PMS5003;41911;52.362;4.978;2022-08-19T00:31:23;12.0;12.0;
55686;PMS5003;41911;52.362;4.978;2022-08-19T00:31:54;10.0;10.0;
55686;PMS5003;41911;52.362;4.978;2022-08-19T00:32:25;12.0;12.0;
55686;PMS5003;41911;52.362;4.978;2022-08-19T00:32:59;10.0;10.0;
55686;PMS5003;41911;52.362;4.978;2022-08-19T00:33:30;12.0;12.0;
55686;PMS5003;41911;52.362;4.978;2022-08-19T00:34:02;9.0;9.0;
55686;PMS5003;41911;52.362;4.978;2022-08-19T00:34:33;11.0;11.0;
55686;PMS5003;41911;52.362;4.978;2022-08-19T00:35:06;10.0;10.0;
55686;PMS5003;41911;52.362;4.978;2022-08-19T00:35:38;12.0;12.0;
55686;PMS5003;41911;52.362;4.978;2022-08-19T00:36:09;12.0;10.0;
55686;PMS5003;41911;52.362;4.978;2022-08-19T00:36:42;11.0;11.0;
55686;PMS5003;41911;52.362;4.978;2022-08-19T00:37:13;10.0;10.0;
55686;PMS5003;41911;52.362;4.978;2022-08-19T00:37:44;10.0;9.0;
55686;PMS5003;41911;52.362;4.978;2022-08-19T00:38:15;13.0;13.0;
55686;PMS5003;41911;52.362;4.978;2022-08-19T00:38:46;12.0;12.0;
55686;PMS5003;41911;52.362;4.978;2022-08-19T00:39:17;14.0;14.0;
55686;PMS5003;41911;52.362;4.978;2022-08-19T00:39:48;11.0;11.0;
55686;PMS5003;41911;52.362;4.978;2022-08-19T00:40:20;11.0;11.0;
55686;PMS5003;41911;52.362;4.978;2022-08-19T00:40:51;13.0;13.0;
55686;PMS5003;41911;52.362;4.978;2022-08-19T00:41:23;13.0;13.0;
55686;PMS5003;41911;52.362;4.978;2022-08-19T00:41:55;10.0;10.0;
55686;PMS5003;41911;52.362;4.978;2022-08-19T00:42:26;14.0;12.0;
55686;PMS5003;41911;52.362;4.978;2022-08-19T00:42:57;12.0;10.0;
55686;PMS5003;41911;52.362;4.978;2022-08-19T00:43:28;13.0;13.0;
55686;PMS5003;41911;52.362;4.978;2022-08-19T00:44:00;14.0;13.0;
55686;PMS5003;41911;52.362;4.978;2022-08-19T00:44:33;14.0;14.0;
55686;PMS5003;41911;52.362;4.978;2022-08-19T00:45:05;10.0;10.0;
55686;PMS5003;41911;52.362;4.978;2022-08-19T00:45:41;12.0;12.0;
55686;PMS5003;41911;52.362;4.978;2022-08-19T00:46:12;13.0;13.0;
55686;PMS5003;41911;52.362;4.978;2022-08-19T00:46:44;12.0;12.0;
55686;PMS5003;41911;52.362;4.978;2022-08-19T00:47:17;11.0;11.0;
55686;PMS5003;41911;52.362;4.978;2022-08-19T00:47:48;9.0;9.0;
55686;PMS5003;41911;52.362;4.978;2022-08-19T00:48:19;13.0;13.0;
55686;PMS5003;41911;52.362;4.978;2022-08-19T00:48:51;12.0;12.0;
55686;PMS5003;41911;52.362;4.978;2022-08-19T00:49:24;11.0;11.0;
55686;PMS5003;41911;52.362;4.978;2022-08-19T00:49:59;11.0;11.0;
55686;PMS5003;41911;52.362;4.978;2022-08-19T00:50:30;12.0;11.0;
55686;PMS5003;41911;52.362;4.978;2022-08-19T00:51:02;11.0;10.0;
55686;PMS5003;41911;52.362;4.978;2022-08-19T00:51:35;13.0;12.0;
55686;PMS5003;41911;52.362;4.978;2022-08-19T00:52:07;14.0;13.0;
55686;PMS5003;41911;52.362;4.978;2022-08-19T00:52:49;11.0;11.0;
55686;PMS5003;41911;52.362;4.978;2022-08-19T00:53:23;11.0;11.0;
55686;PMS5003;41911;52.362;4.978;2022-08-19T00:53:56;13.0;13.0;
55686;PMS5003;41911;52.362;4.978;2022-08-19T00:54:29;12.0;12.0;
55686;PMS5003;41911;52.362;4.978;2022-08-19T00:55:00;11.0;10.0;
55686;PMS5003;41911;52.362;4.978;2022-08-19T00:55:35;11.0;10.0;
55686;PMS5003;41911;52.362;4.978;2022-08-19T00:56:07;13.0;13.0;
55686;PMS5003;41911;52.362;4.978;2022-08-19T00:56:39;16.0;15.0;
55686;PMS5003;41911;52.362;4.978;2022-08-19T00:57:12;15.0;14.0;
55686;PMS5003;41911;52.362;4.978;2022-08-19T00:57:48;14.0;14.0;
55686;PMS5003;41911;52.362;4.978;2022-08-19T00:58:27;11.0;11.0;
55686;PMS5003;41911;52.362;4.978;2022-08-19T00:59:02;11.0;10.0;
55686;PMS5003;41911;52.362;4.978;2022-08-19T00:59:36;13.0;13.0;
55686;PMS5003;41911;52.362;4.978;2022-08-19T01:00:11;12.0;12.0;
55686;PMS5003;41911;52.362;4.978;2022-08-19T01:00:45;14.0;12.0;
55686;PMS5003;41911;52.362;4.978;2022-08-19T01:01:16;14.0;12.0;
55686;PMS5003;41911;52.362;4.978;2022-08-19T01:01:47;14.0;14.0;
55686;PMS5003;41911;52.362;4.978;2022-08-19T01:02:18;13.0;13.0;
55686;PMS5003;41911;52.362;4.978;2022-08-19T01:02:50;13.0;13.0;
55686;PMS5003;41911;52.362;4.978;2022-08-19T01:03:22;12.0;12.0;
55686;PMS5003;41911;52.362;4.978;2022-08-19T01:03:54;13.0;13.0;
55686;PMS5003;41911;52.362;4.978;2022-08-19T01:04:25;13.0;11.0;
55686;PMS5003;41911;52.362;4.978;2022-08-19T01:04:56;13.0;13.0;
55686;PMS5003;41911;52.362;4.978;2022-08-19T01:05:27;14.0;14.0;
55686;PMS5003;41911;52.362;4.978;2022-08-19T01:05:59;14.0;13.0;
55686;PMS5003;41911;52.362;4.978;2022-08-19T01:06:30;12.0;12.0;
55686;PMS5003;41911;52.362;4.978;2022-08-19T01:07:03;13.0;13.0;
55686;PMS5003;41911;52.362;4.978;2022-08-19T01:07:35;12.0;12.0;
55686;PMS5003;41911;52.362;4.978;2022-08-19T01:08:10;13.0;13.0;
55686;PMS5003;41911;52.362;4.978;2022-08-19T01:08:42;11.0;11.0;
55686;PMS5003;41911;52.362;4.978;2022-08-19T01:09:13;15.0;14.0;
55686;PMS5003;41911;52.362;4.978;2022-08-19T01:09:44;12.0;12.0;
55686;PMS5003;41911;52.362;4.978;2022-08-19T01:10:16;13.0;13.0;
55686;PMS5003;41911;52.362;4.978;2022-08-19T01:10:50;12.0;12.0;
55686;PMS5003;41911;52.362;4.978;2022-08-19T01:11:23;14.0;14.0;
55686;PMS5003;41911;52.362;4.978;2022-08-19T01:11:55;16.0;15.0;
55686;PMS5003;41911;52.362;4.978;2022-08-19T01:12:27;12.0;12.0;
55686;PMS5003;41911;52.362;4.978;2022-08-19T01:12:58;15.0;14.0;
55686;PMS5003;41911;52.362;4.978;2022-08-19T01:13:32;13.0;13.0;
55686;PMS5003;41911;52.362;4.978;2022-08-19T01:14:04;14.0;14.0;
55686;PMS5003;41911;52.362;4.978;2022-08-19T01:14:37;15.0;15.0;
55686;PMS5003;41911;52.362;4.978;2022-08-19T01:15:11;14.0;14.0;
55686;PMS5003;41911;52.362;4.978;2022-08-19T01:15:46;13.0;13.0;
55686;PMS5003;41911;52.362;4.978;2022-08-19T01:16:23;13.0;13.0;
55686;PMS5003;41911;52.362;4.978;2022-08-19T01:16:57;14.0;14.0;
55686;PMS5003;41911;52.362;4.978;2022-08-19T01:17:28;12.0;12.0;
55686;PMS5003;41911;52.362;4.978;2022-08-19T01:18:02;12.0;11.0;
55686;PMS5003;41911;52.362;4.978;2022-08-19T01:18:38;13.0;13.0;
55686;PMS5003;41911;52.362;4.978;2022-08-19T01:19:13;14.0;13.0;
55686;PMS5003;41911;52.362;4.978;2022-08-19T01:19:53;12.0;12.0;
55686;PMS5003;41911;52.362;4.978;2022-08-19T01:20:24;15.0;15.0;
55686;PMS5003;41911;52.362;4.978;2022-08-19T01:20:56;13.0;13.0;
55686;PMS5003;41911;52.362;4.978;2022-08-19T01:21:32;12.0;11.0;
55686;PMS5003;41911;52.362;4.978;2022-08-19T01:22:12;15.0;14.0;
55686;PMS5003;41911;52.362;4.978;2022-08-19T01:22:51;16.0;16.0;
55686;PMS5003;41911;52.362;4.978;2022-08-19T01:23:24;17.0;17.0;
55686;PMS5003;41911;52.362;4.978;2022-08-19T01:23:55;14.0;14.0;
55686;PMS5003;41911;52.362;4.978;2022-08-19T01:24:26;15.0;15.0;
55686;PMS5003;41911;52.362;4.978;2022-08-19T01:24:57;17.0;17.0;
55686;PMS5003;41911;52.362;4.978;2022-08-19T01:25:29;18.0;18.0;
55686;PMS5003;41911;52.362;4.978;2022-08-19T01:26:09;14.0;14.0;
55686;PMS5003;41911;52.362;4.978;2022-08-19T01:26:43;17.0;15.0;
55686;PMS5003;41911;52.362;4.978;2022-08-19T01:27:14;17.0;16.0;
55686;PMS5003;41911;52.362;4.978;2022-08-19T01:27:47;17.0;15.0;
55686;PMS5003;41911;52.362;4.978;2022-08-19T01:28:21;18.0;18.0;
55686;PMS5003;41911;52.362;4.978;2022-08-19T01:34:15;25.0;25.0;
55686;PMS5003;41911;52.362;4.978;2022-08-19T01:34:46;19.0;17.0;
55686;PMS5003;41911;52.362;4.978;2022-08-19T01:35:16;24.0;23.0;
55686;PMS5003;41911;52.362;4.978;2022-08-19T01:35:48;20.0;20.0;
55686;PMS5003;41911;52.362;4.978;2022-08-19T01:36:22;20.0;20.0;
55686;PMS5003;41911;52.362;4.978;2022-08-19T01:36:55;19.0;18.0;
55686;PMS5003;41911;52.362;4.978;2022-08-19T01:37:26;24.0;24.0;
55686;PMS5003;41911;52.362;4.978;2022-08-19T01:37:57;25.0;23.0;
55686;PMS5003;41911;52.362;4.978;2022-08-19T01:38:30;20.0;20.0;
55686;PMS5003;41911;52.362;4.978;2022-08-19T01:39:02;29.0;26.0;
55686;PMS5003;41911;52.362;4.978;2022-08-19T01:39:36;25.0;25.0;
55686;PMS5003;41911;52.362;4.978;2022-08-19T01:40:09;27.0;25.0;
55686;PMS5003;41911;52.362;4.978;2022-08-19T01:40:41;23.0;23.0;
55686;PMS5003;41911;52.362;4.978;2022-08-19T01:41:11;28.0;27.0;
55686;PMS5003;41911;52.362;4.978;2022-08-19T01:41:43;24.0;23.0;
55686;PMS5003;41911;52.362;4.978;2022-08-19T01:42:14;27.0;26.0;
55686;PMS5003;41911;52.362;4.978;2022-08-19T01:42:45;31.0;30.0;
55686;PMS5003;41911;52.362;4.978;2022-08-19T01:43:16;22.0;20.0;
55686;PMS5003;41911;52.362;4.978;2022-08-19T01:43:47;27.0;25.0;
55686;PMS5003;41911;52.362;4.978;2022-08-19T01:44:17;25.0;23.0;
55686;PMS5003;41911;52.362;4.978;2022-08-19T01:44:48;27.0;27.0;
55686;PMS5003;41911;52.362;4.978;2022-08-19T01:45:20;22.0;22.0;
55686;PMS5003;41911;52.362;4.978;2022-08-19T01:45:53;22.0;21.0;
55686;PMS5003;41911;52.362;4.978;2022-08-19T01:46:24;24.0;24.0;
55686;PMS5003;41911;52.362;4.978;2022-08-19T01:46:55;23.0;22.0;
55686;PMS5003;41911;52.362;4.978;2022-08-19T01:47:26;26.0;25.0;
55686;PMS5003;41911;52.362;4.978;2022-08-19T01:47:58;28.0;26.0;
55686;PMS5003;41911;52.362;4.978;2022-08-19T01:48:33;22.0;21.0;
55686;PMS5003;41911;52.362;4.978;2022-08-19T01:49:05;25.0;24.0;
55686;PMS5003;41911;52.362;4.978;2022-08-19T01:49:37;23.0;23.0;
55686;PMS5003;41911;52.362;4.978;2022-08-19T01:50:09;22.0;22.0;
55686;PMS5003;41911;52.362;4.978;2022-08-19T01:50:41;29.0;27.0;
55686;PMS5003;41911;52.362;4.978;2022-08-19T01:51:12;27.0;26.0;
55686;PMS5003;41911;52.362;4.978;2022-08-19T01:51:43;25.0;24.0;
55686;PMS5003;41911;52.362;4.978;2022-08-19T01:52:15;23.0;22.0;
55686;PMS5003;41911;52.362;4.978;2022-08-19T01:52:46;24.0;22.0;
55686;PMS5003;41911;52.362;4.978;2022-08-19T01:53:17;26.0;25.0;
55686;PMS5003;41911;52.362;4.978;2022-08-19T01:53:48;28.0;27.0;
55686;PMS5003;41911;52.362;4.978;2022-08-19T01:54:21;28.0;27.0;
55686;PMS5003;41911;52.362;4.978;2022-08-19T01:54:54;26.0;25.0;
55686;PMS5003;41911;52.362;4.978;2022-08-19T01:55:25;26.0;26.0;
55686;PMS5003;41911;52.362;4.978;2022-08-19T01:55:56;22.0;22.0;
55686;PMS5003;41911;52.362;4.978;2022-08-19T01:56:28;26.0;25.0;
55686;PMS5003;41911;52.362;4.978;2022-08-19T01:57:00;26.0;25.0;
55686;PMS5003;41911;52.362;4.978;2022-08-19T01:57:33;24.0;24.0;
55686;PMS5003;41911;52.362;4.978;2022-08-19T01:58:05;24.0;23.0;
55686;PMS5003;41911;52.362;4.978;2022-08-19T01:58:38;26.0;25.0;
55686;PMS5003;41911;52.362;4.978;2022-08-19T01:59:12;26.0;26.0;
55686;PMS5003;41911;52.362;4.978;2022-08-19T01:59:47;28.0;27.0;
55686;PMS5003;41911;52.362;4.978;2022-08-19T02:00:19;23.0;23.0;
55686;PMS5003;41911;52.362;4.978;2022-08-19T02:00:50;23.0;23.0;
55686;PMS5003;41911;52.362;4.978;2022-08-19T02:01:22;32.0;31.0;
55686;PMS5003;41911;52.362;4.978;2022-08-19T02:01:53;28.0;27.0;
55686;PMS5003;41911;52.362;4.978;2022-08-19T02:02:24;24.0;23.0;
55686;PMS5003;41911;52.362;4.978;2022-08-19T02:02:55;24.0;24.0;
55686;PMS5003;41911;52.362;4.978;2022-08-19T02:03:26;30.0;30.0;
55686;PMS5003;41911;52.362;4.978;2022-08-19T02:03:57;27.0;25.0;
55686;PMS5003;41911;52.362;4.978;2022-08-19T02:04:28;27.0;27.0;
55686;PMS5003;41911;52.362;4.978;2022-08-19T02:04:59;25.0;23.0;
55686;PMS5003;41911;52.362;4.978;2022-08-19T02:05:30;28.0;28.0;
55686;PMS5003;41911;52.362;4.978;2022-08-19T02:06:01;26.0;25.0;
55686;PMS5003;41911;52.362;4.978;2022-08-19T02:06:33;27.0;26.0;
55686;PMS5003;41911;52.362;4.978;2022-08-19T02:07:05;28.0;27.0;
55686;PMS5003;41911;52.362;4.978;2022-08-19T02:07:36;29.0;28.0;
55686;PMS5003;41911;52.362;4.978;2022-08-19T02:08:09;28.0;28.0;
55686;PMS5003;41911;52.362;4.978;2022-08-19T02:08:41;25.0;25.0;
55686;PMS5003;41911;52.362;4.978;2022-08-19T02:09:12;26.0;25.0;
55686;PMS5003;41911;52.362;4.978;2022-08-19T02:09:43;25.0;24.0;
55686;PMS5003;41911;52.362;4.978;2022-08-19T02:10:16;23.0;23.0;
55686;PMS5003;41911;52.362;4.978;2022-08-19T02:10:50;24.0;24.0;
55686;PMS5003;41911;52.362;4.978;2022-08-19T02:11:22;30.0;30.0;
55686;PMS5003;41911;52.362;4.978;2022-08-19T02:11:54;26.0;26.0;
55686;PMS5003;41911;52.362;4.978;2022-08-19T02:12:25;26.0;26.0;
55686;PMS5003;41911;52.362;4.978;2022-08-19T02:12:56;24.0;24.0;
55686;PMS5003;41911;52.362;4.978;2022-08-19T02:13:27;24.0;24.0;
55686;PMS5003;41911;52.362;4.978;2022-08-19T02:13:59;25.0;25.0;
55686;PMS5003;41911;52.362;4.978;2022-08-19T02:14:33;24.0;23.0;
55686;PMS5003;41911;52.362;4.978;2022-08-19T02:15:05;25.0;25.0;
55686;PMS5003;41911;52.362;4.978;2022-08-19T02:15:37;22.0;21.0;
55686;PMS5003;41911;52.362;4.978;2022-08-19T02:16:08;24.0;24.0;
55686;PMS5003;41911;52.362;4.978;2022-08-19T02:16:39;25.0;25.0;
55686;PMS5003;41911;52.362;4.978;2022-08-19T02:17:10;32.0;31.0;
55686;PMS5003;41911;52.362;4.978;2022-08-19T02:17:41;24.0;24.0;
55686;PMS5003;41911;52.362;4.978;2022-08-19T02:18:17;25.0;24.0;
55686;PMS5003;41911;52.362;4.978;2022-08-19T02:18:48;24.0;24.0;
55686;PMS5003;41911;52.362;4.978;2022-08-19T02:19:19;22.0;22.0;
55686;PMS5003;41911;52.362;4.978;2022-08-19T02:19:50;26.0;24.0;
55686;PMS5003;41911;52.362;4.978;2022-08-19T02:20:21;27.0;24.0;
55686;PMS5003;41911;52.362;4.978;2022-08-19T02:20:52;22.0;22.0;
55686;PMS5003;41911;52.362;4.978;2022-08-19T02:21:28;23.0;23.0;
55686;PMS5003;41911;52.362;4.978;2022-08-19T02:22:00;22.0;22.0;
55686;PMS5003;41911;52.362;4.978;2022-08-19T02:22:31;30.0;27.0;
55686;PMS5003;41911;52.362;4.978;2022-08-19T02:23:03;28.0;28.0;
55686;PMS5003;41911;52.362;4.978;2022-08-19T02:23:34;25.0;24.0;
55686;PMS5003;41911;52.362;4.978;2022-08-19T02:24:05;25.0;25.0;
55686;PMS5003;41911;52.362;4.978;2022-08-19T02:24:36;25.0;24.0;
55686;PMS5003;41911;52.362;4.978;2022-08-19T02:25:08;25.0;24.0;
55686;PMS5003;41911;52.362;4.978;2022-08-19T02:25:40;24.0;23.0;
55686;PMS5003;41911;52.362;4.978;2022-08-19T02:26:12;25.0;25.0;
55686;PMS5003;41911;52.362;4.978;2022-08-19T02:26:44;24.0;24.0;
55686;PMS5003;41911;52.362;4.978;2022-08-19T02:27:15;26.0;26.0;
55686;PMS5003;41911;52.362;4.978;2022-08-19T02:27:46;22.0;22.0;
55686;PMS5003;41911;52.362;4.978;2022-08-19T02:28:17;23.0;23.0;
55686;PMS5003;41911;52.362;4.978;2022-08-19T02:28:48;24.0;24.0;
55686;PMS5003;41911;52.362;4.978;2022-08-19T02:29:19;24.0;23.0;
55686;PMS5003;41911;52.362;4.978;2022-08-19T02:29:51;22.0;22.0;
55686;PMS5003;41911;52.362;4.978;2022-08-19T02:30:22;28.0;24.0;
55686;PMS5003;41911;52.362;4.978;2022-08-19T02:30:54;22.0;22.0;
55686;PMS5003;41911;52.362;4.978;2022-08-19T02:31:26;25.0;25.0;
55686;PMS5003;41911;52.362;4.978;2022-08-19T02:31:57;24.0;23.0;
55686;PMS5003;41911;52.362;4.978;2022-08-19T02:32:28;27.0;26.0;
55686;PMS5003;41911;52.362;4.978;2022-08-19T02:32:59;23.0;23.0;
55686;PMS5003;41911;52.362;4.978;2022-08-19T02:33:30;27.0;25.0;
55686;PMS5003;41911;52.362;4.978;2022-08-19T02:34:01;27.0;25.0;
55686;PMS5003;41911;52.362;4.978;2022-08-19T02:34:32;26.0;25.0;
55686;PMS5003;41911;52.362;4.978;2022-08-19T02:35:03;31.0;29.0;
55686;PMS5003;41911;52.362;4.978;2022-08-19T02:35:35;24.0;23.0;
55686;PMS5003;41911;52.362;4.978;2022-08-19T02:36:07;27.0;25.0;
55686;PMS5003;41911;52.362;4.978;2022-08-19T02:36:39;29.0;28.0;
55686;PMS5003;41911;52.362;4.978;2022-08-19T02:37:10;25.0;23.0;
55686;PMS5003;41911;52.362;4.978;2022-08-19T02:37:41;23.0;21.0;
55686;PMS5003;41911;52.362;4.978;2022-08-19T02:38:12;27.0;27.0;
55686;PMS5003;41911;52.362;4.978;2022-08-19T02:38:44;22.0;22.0;
55686;PMS5003;41911;52.362;4.978;2022-08-19T02:39:16;25.0;24.0;
55686;PMS5003;41911;52.362;4.978;2022-08-19T02:39:48;23.0;23.0;
55686;PMS5003;41911;52.362;4.978;2022-08-19T02:40:19;22.0;22.0;
55686;PMS5003;41911;52.362;4.978;2022-08-19T02:40:50;27.0;25.0;
55686;PMS5003;41911;52.362;4.978;2022-08-19T02:41:24;27.0;25.0;
55686;PMS5003;41911;52.362;4.978;2022-08-19T02:42:02;23.0;22.0;
55686;PMS5003;41911;52.362;4.978;2022-08-19T02:42:33;22.0;22.0;
55686;PMS5003;41911;52.362;4.978;2022-08-19T02:43:04;25.0;25.0;
55686;PMS5003;41911;52.362;4.978;2022-08-19T02:43:38;22.0;21.0;
55686;PMS5003;41911;52.362;4.978;2022-08-19T02:44:09;22.0;22.0;
55686;PMS5003;41911;52.362;4.978;2022-08-19T02:44:40;23.0;22.0;
55686;PMS5003;41911;52.362;4.978;2022-08-19T02:45:11;26.0;25.0;
55686;PMS5003;41911;52.362;4.978;2022-08-19T02:45:43;26.0;26.0;
55686;PMS5003;41911;52.362;4.978;2022-08-19T02:46:14;22.0;21.0;
55686;PMS5003;41911;52.362;4.978;2022-08-19T02:46:48;21.0;20.0;
55686;PMS5003;41911;52.362;4.978;2022-08-19T02:47:19;22.0;21.0;
55686;PMS5003;41911;52.362;4.978;2022-08-19T02:47:50;22.0;22.0;
55686;PMS5003;41911;52.362;4.978;2022-08-19T02:48:22;24.0;23.0;
55686;PMS5003;41911;52.362;4.978;2022-08-19T02:48:55;23.0;22.0;
55686;PMS5003;41911;52.362;4.978;2022-08-19T02:49:28;26.0;24.0;
55686;PMS5003;41911;52.362;4.978;2022-08-19T02:50:03;21.0;21.0;
55686;PMS5003;41911;52.362;4.978;2022-08-19T02:50:37;24.0;23.0;
55686;PMS5003;41911;52.362;4.978;2022-08-19T02:51:08;19.0;18.0;
55686;PMS5003;41911;52.362;4.978;2022-08-19T02:51:47;22.0;22.0;
55686;PMS5003;41911;52.362;4.978;2022-08-19T02:52:18;22.0;22.0;
55686;PMS5003;41911;52.362;4.978;2022-08-19T02:52:54;23.0;23.0;
55686;PMS5003;41911;52.362;4.978;2022-08-19T02:53:27;20.0;20.0;
55686;PMS5003;41911;52.362;4.978;2022-08-19T02:53:59;23.0;21.0;
55686;PMS5003;41911;52.362;4.978;2022-08-19T02:54:30;23.0;22.0;
55686;PMS5003;41911;52.362;4.978;2022-08-19T02:55:01;23.0;23.0;
55686;PMS5003;41911;52.362;4.978;2022-08-19T02:55:32;24.0;22.0;
55686;PMS5003;41911;52.362;4.978;2022-08-19T02:56:06;26.0;25.0;
55686;PMS5003;41911;52.362;4.978;2022-08-19T02:56:37;23.0;23.0;
55686;PMS5003;41911;52.362;4.978;2022-08-19T02:57:09;28.0;27.0;
55686;PMS5003;41911;52.362;4.978;2022-08-19T02:57:40;19.0;19.0;
55686;PMS5003;41911;52.362;4.978;2022-08-19T02:58:12;25.0;25.0;
55686;PMS5003;41911;52.362;4.978;2022-08-19T02:58:43;22.0;22.0;
55686;PMS5003;41911;52.362;4.978;2022-08-19T02:59:15;23.0;22.0;
55686;PMS5003;41911;52.362;4.978;2022-08-19T02:59:45;22.0;22.0;
55686;PMS5003;41911;52.362;4.978;2022-08-19T03:00:17;23.0;23.0;
55686;PMS5003;41911;52.362;4.978;2022-08-19T03:00:49;22.0;22.0;
55686;PMS5003;41911;52.362;4.978;2022-08-19T03:01:23;22.0;20.0;
55686;PMS5003;41911;52.362;4.978;2022-08-19T03:01:55;21.0;21.0;
55686;PMS5003;41911;52.362;4.978;2022-08-19T03:02:26;21.0;20.0;
55686;PMS5003;41911;52.362;4.978;2022-08-19T03:02:57;24.0;22.0;
55686;PMS5003;41911;52.362;4.978;2022-08-19T03:03:28;22.0;22.0;
55686;PMS5003;41911;52.362;4.978;2022-08-19T03:04:00;22.0;22.0;
55686;PMS5003;41911;52.362;4.978;2022-08-19T03:04:33;22.0;21.0;
55686;PMS5003;41911;52.362;4.978;2022-08-19T03:05:05;22.0;22.0;
55686;PMS5003;41911;52.362;4.978;2022-08-19T03:05:41;22.0;20.0;
55686;PMS5003;41911;52.362;4.978;2022-08-19T03:06:14;22.0;22.0;
55686;PMS5003;41911;52.362;4.978;2022-08-19T03:06:46;20.0;19.0;
55686;PMS5003;41911;52.362;4.978;2022-08-19T03:07:17;20.0;19.0;
55686;PMS5003;41911;52.362;4.978;2022-08-19T03:07:49;24.0;23.0;
55686;PMS5003;41911;52.362;4.978;2022-08-19T03:08:19;23.0;23.0;
55686;PMS5003;41911;52.362;4.978;2022-08-19T03:08:51;18.0;18.0;
55686;PMS5003;41911;52.362;4.978;2022-08-19T03:09:22;24.0;23.0;
55686;PMS5003;41911;52.362;4.978;2022-08-19T03:09:53;21.0;19.0;
55686;PMS5003;41911;52.362;4.978;2022-08-19T03:10:24;21.0;20.0;
55686;PMS5003;41911;52.362;4.978;2022-08-19T03:10:57;23.0;22.0;
55686;PMS5003;41911;52.362;4.978;2022-08-19T03:11:29;21.0;19.0;
55686;PMS5003;41911;52.362;4.978;2022-08-19T03:12:02;21.0;20.0;
55686;PMS5003;41911;52.362;4.978;2022-08-19T03:12:35;21.0;21.0;
55686;PMS5003;41911;52.362;4.978;2022-08-19T03:13:07;21.0;20.0;
55686;PMS5003;41911;52.362;4.978;2022-08-19T03:13:38;18.0;17.0;
55686;PMS5003;41911;52.362;4.978;2022-08-19T03:14:09;26.0;23.0;
55686;PMS5003;41911;52.362;4.978;2022-08-19T03:14:41;21.0;21.0;
55686;PMS5003;41911;52.362;4.978;2022-08-19T03:15:12;22.0;21.0;
55686;PMS5003;41911;52.362;4.978;2022-08-19T03:15:44;19.0;19.0;
55686;PMS5003;41911;52.362;4.978;2022-08-19T03:16:17;21.0;21.0;
55686;PMS5003;41911;52.362;4.978;2022-08-19T03:16:50;23.0;23.0;
55686;PMS5003;41911;52.362;4.978;2022-08-19T03:17:22;19.0;19.0;
55686;PMS5003;41911;52.362;4.978;2022-08-19T03:17:53;21.0;21.0;
55686;PMS5003;41911;52.362;4.978;2022-08-19T03:18:24;22.0;22.0;
55686;PMS5003;41911;52.362;4.978;2022-08-19T03:18:56;18.0;17.0;
55686;PMS5003;41911;52.362;4.978;2022-08-19T03:19:27;24.0;24.0;
55686;PMS5003;41911;52.362;4.978;2022-08-19T03:19:58;21.0;21.0;
55686;PMS5003;41911;52.362;4.978;2022-08-19T03:20:29;23.0;21.0;
55686;PMS5003;41911;52.362;4.978;2022-08-19T03:21:00;23.0;21.0;
55686;PMS5003;41911;52.362;4.978;2022-08-19T03:21:32;25.0;23.0;
55686;PMS5003;41911;52.362;4.978;2022-08-19T03:22:05;16.0;15.0;
55686;PMS5003;41911;52.362;4.978;2022-08-19T03:22:36;22.0;19.0;
55686;PMS5003;41911;52.362;4.978;2022-08-19T03:23:07;20.0;19.0;
55686;PMS5003;41911;52.362;4.978;2022-08-19T03:23:38;19.0;18.0;
55686;PMS5003;41911;52.362;4.978;2022-08-19T03:24:10;21.0;21.0;
55686;PMS5003;41911;52.362;4.978;2022-08-19T03:24:42;18.0;18.0;
55686;PMS5003;41911;52.362;4.978;2022-08-19T03:25:13;20.0;20.0;